Hood River, OR

9:18 AM PST on February 11, 2016 (GMT -0800)
Hood River Valley | | Change Station
CLOSE
Current Station
Personal Weather Station
Location: Hood River, OR
Elevation: 600 ft
Nearby Weather Stations

Elev 600 ft 45.66 °N, 121.55 °W | Updated 0 second ago

Overcast
Overcast
45.1 °F
Feels Like 45 °F
N
1.0
Wind Variable Wind from WSW
Gusts 1.0 mph

Today
High -- | Low -- °F
--% Chance of Precip.
Yesterday
High -- | Low -- °F
Precip. -- in
Pressure 30.30 in
Visibility 7.0 miles
Clouds Overcast 9500 ft
Windchill 45 °F
Dew Point 44 °F
Humidity 94%
Rainfall 0.00 in
Snow Depth Not available.
7:14 AM 5:26 PM
Waxing Crescent, 13% visible
METAR KDLS 111653Z AUTO 00000KT 7SM OVC095 07/04 A3030 RMK AO2 SLP261 T00720044
Pressure 30.30 in
Visibility 7.0 miles
Clouds Overcast 9500 ft
Windchill 45 °F
Dew Point 44 °F
Humidity 94%
Rainfall 0.00 in
Snow Depth Not available.
7:14 AM 5:26 PM
Waxing Crescent, 13% visible
METAR KDLS 111653Z AUTO 00000KT 7SM OVC095 07/04 A3030 RMK AO2 SLP261 T00720044

10-Day Weather Forecast

Almanac

Astronomy

Feb. 11, 2016 Rise Set
Actual Time
Civil Twilight
Nautical Twilight
Astronomical Twilight
Moon
Length of Visible Light
Length of Day
Tomorrow will be .
, % of the Moon is Illuminated

Today's Extremes

State Highs State Lows

Community

WunderPhotos

Upload Photos

1,892,104 photos uploaded!

WunderBlog® & News

Nearby

Air Quality

  Air Quality AQ Index Pollutant
Not available.

Snow Depth

Station Depth Elevation

Earthquake Activity

City Distance Mag. Time & Date
Minimum magnitude displayed is 2.5.

Coastal Water Temperatures

Place Temperature

Stations

Nearby Weather Stations

Station Location Temp. Windchill Dew Point Humidity Wind Precip. Elev Updated Type
                   

Watches & Warnings

There are currently no watches in effect.